CBR weather

Canberra International Airport
Canberra, Australian Capital Territory, Australia

Public forecast

Using degrees Celsius for public forecast. Weather courtesy of forecast.io.

METAR (pilot weather report)

Retrieved 2018/11/17 01:30 UTC (23 minutes ago):

YSCB 170130Z 07011KT 9999 SCT040 BKN060 21/07 Q1020 FM0200 11015G25KT 9999 -SHRA SCT030 SCT050

TAF (pilot weather forecast)

Forecast is more than 12 hours old.

Retrieved 2018/11/16 12:00 UTC (14 hours ago):

TAF YSCB 161137Z 1612/1712 10006KT 9999 SCT025 BECMG 1612/1614 12005KT 9999 BKN020 BECMG 1621/1623 12010KT 9999 -SHRA SCT020 BKN040 FM170400 12015G25KT 9999 -SHRA SCT025 SCT045 FM170900 11010KT 9999 SCT020 BKN030 INTER 1621/1704 5000 SHRA BKN020